Time;durP1;ratioP1;P1;durP2;ratioP2;P2;SDS_P1;SDS_P2;PMS_P1;PMS_P2;Temp;Humidity;BMP_temperature;BMP_pressure;BME280_temperature;BME280_humidity;BME280_pressure;Samples;Min_cycle;Max_cycle;Signal;HPM_P1;HPM_P2
2021/09/26 00:04:25;;;;;;;7.70;7.00;;;19.30;99.90;;;;;;10379936;28;20208;-83
2021/09/26 00:09:29;;;;;;;7.97;7.23;;;19.40;99.90;;;;;;10379066;28;20229;-84
2021/09/26 00:14:32;;;;;;;7.90;7.07;;;19.50;99.90;;;;;;10395707;28;20618;-83
2021/09/26 00:19:34;;;;;;;8.13;7.43;;;19.50;99.90;;;;;;10395253;28;20726;-83
2021/09/26 00:24:36;;;;;;;8.23;7.53;;;19.50;99.90;;;;;;10414306;28;20209;-83
2021/09/26 00:29:40;;;;;;;8.30;7.60;;;19.60;99.90;;;;;;10454689;28;20217;-84
2021/09/26 00:34:42;;;;;;;7.87;6.97;;;19.50;99.90;;;;;;10436111;28;20205;-84
2021/09/26 00:39:44;;;;;;;12.13;7.20;;;19.60;99.90;;;;;;10454382;28;20233;-84
2021/09/26 00:44:48;;;;;;;7.43;6.73;;;19.60;99.90;;;;;;10436888;28;20259;-84
2021/09/26 00:49:50;;;;;;;7.93;6.80;;;19.60;99.90;;;;;;10436308;28;20249;-84
2021/09/26 00:54:52;;;;;;;7.20;6.60;;;19.60;99.90;;;;;;10382316;28;20280;-84
2021/09/26 00:59:58;;;;;;;7.30;6.80;;;19.50;99.90;;;;;;10391241;28;20242;-84
2021/09/26 01:05:00;;;;;;;7.77;7.07;;;19.50;99.90;;;;;;10408633;28;20273;-84
2021/09/26 01:10:10;;;;;;;8.10;7.30;;;19.50;99.90;;;;;;10394237;28;20218;-84
2021/09/26 01:15:23;;;;;;;9.00;7.40;;;19.40;99.90;;;;;;10412566;28;20205;-84
2021/09/26 01:20:40;;;;;;;8.53;7.83;;;19.40;99.90;;;;;;10378171;28;20239;-84
2021/09/26 01:25:58;;;;;;;9.20;8.40;;;19.40;99.90;;;;;;10435333;28;20646;-84
2021/09/26 01:31:06;;;;;;;9.93;8.20;;;19.40;99.90;;;;;;10417690;28;20216;-84
2021/09/26 01:36:17;;;;;;;8.20;7.60;;;19.40;99.90;;;;;;10417800;28;20209;-84
2021/09/26 01:41:24;;;;;;;8.17;7.47;;;19.30;99.90;;;;;;10440461;23;20730;-84
2021/09/26 01:46:33;;;;;;;8.60;7.80;;;19.30;99.90;;;;;;10425361;28;20202;-83
2021/09/26 01:51:37;;;;;;;7.70;7.10;;;19.20;99.90;;;;;;10446712;28;20603;-83
2021/09/26 01:56:43;;;;;;;13.73;7.77;;;19.20;99.90;;;;;;10429560;28;20232;-85
2021/09/26 02:01:47;;;;;;;8.80;8.10;;;19.10;99.90;;;;;;10445011;28;20301;-84
2021/09/26 02:06:50;;;;;;;9.73;7.37;;;19.00;99.90;;;;;;10443994;28;20221;-83
2021/09/26 02:11:54;;;;;;;7.93;7.33;;;19.00;99.90;;;;;;10426627;28;20251;-85
2021/09/26 02:16:58;;;;;;;7.77;7.07;;;18.90;99.90;;;;;;10427317;28;20296;-84
2021/09/26 02:22:01;;;;;;;8.20;7.40;;;18.90;99.90;;;;;;10412725;28;20226;-84
2021/09/26 02:27:03;;;;;;;7.83;7.13;;;18.80;99.90;;;;;;10403762;28;20616;-85
2021/09/26 02:32:07;;;;;;;8.00;7.37;;;18.80;99.90;;;;;;10405043;28;20237;-85
2021/09/26 02:37:09;;;;;;;8.27;7.57;;;18.70;99.90;;;;;;10404379;28;20202;-84
2021/09/26 02:42:18;;;;;;;8.43;7.60;;;18.70;99.90;;;;;;10404235;28;20571;-85
2021/09/26 02:47:26;;;;;;;8.40;7.60;;;18.70;99.90;;;;;;10407427;28;20232;-85
2021/09/26 02:52:29;;;;;;;8.50;7.20;;;18.60;99.90;;;;;;10404880;28;20232;-83
2021/09/26 02:57:34;;;;;;;9.23;7.37;;;18.60;99.90;;;;;;10423059;28;20723;-84
2021/09/26 03:02:38;;;;;;;8.40;7.67;;;18.50;99.90;;;;;;10428562;28;20320;-84
2021/09/26 03:07:40;;;;;;;8.33;7.53;;;18.50;99.90;;;;;;10441099;28;20240;-84
2021/09/26 03:12:43;;;;;;;7.97;7.37;;;18.50;99.90;;;;;;10443059;28;20220;-83
2021/09/26 03:17:46;;;;;;;8.97;8.23;;;18.40;99.90;;;;;;10440239;28;20212;-83
2021/09/26 03:22:49;;;;;;;8.50;7.77;;;18.40;99.90;;;;;;10422323;28;20229;-83
2021/09/26 03:27:52;;;;;;;8.37;7.77;;;18.40;99.90;;;;;;10458457;28;20281;-83
2021/09/26 03:32:55;;;;;;;9.60;8.70;;;18.30;99.90;;;;;;10428114;28;20223;-86
2021/09/26 03:37:57;;;;;;;8.80;8.10;;;18.30;99.90;;;;;;10440844;28;20204;-83
2021/09/26 03:43:00;;;;;;;7.70;7.17;;;18.20;99.90;;;;;;10424508;28;20229;-84
2021/09/26 03:48:04;;;;;;;8.20;7.60;;;18.20;99.90;;;;;;10444642;28;20671;-85
2021/09/26 03:53:06;;;;;;;8.80;8.10;;;18.20;99.90;;;;;;10426062;28;20217;-84
2021/09/26 03:58:08;;;;;;;9.00;8.30;;;18.20;99.90;;;;;;10442596;28;20719;-84
2021/09/26 04:03:11;;;;;;;10.23;8.07;;;18.20;99.90;;;;;;10443551;28;20658;-83
2021/09/26 04:08:15;;;;;;;9.13;8.33;;;18.10;99.90;;;;;;10444334;28;20225;-83
2021/09/26 04:13:17;;;;;;;9.60;8.80;;;18.10;99.90;;;;;;10428575;28;20452;-84
2021/09/26 04:18:20;;;;;;;8.37;7.77;;;18.10;99.90;;;;;;10446554;28;20208;-85
2021/09/26 04:23:22;;;;;;;9.20;7.57;;;18.00;99.90;;;;;;10447795;28;20267;-83
2021/09/26 04:28:24;;;;;;;8.50;7.67;;;18.00;99.90;;;;;;10432563;28;20756;-83
2021/09/26 04:33:28;;;;;;;8.33;7.73;;;18.00;99.90;;;;;;10427295;28;20197;-84
2021/09/26 04:38:30;;;;;;;8.80;8.10;;;17.90;99.90;;;;;;10442755;28;20189;-84
2021/09/26 04:43:32;;;;;;;9.50;8.70;;;17.90;99.90;;;;;;10438363;28;20205;-84
2021/09/26 04:48:36;;;;;;;8.60;7.70;;;17.90;99.90;;;;;;10422824;28;20225;-83
2021/09/26 04:53:38;;;;;;;8.97;8.03;;;17.90;99.90;;;;;;10441622;28;20217;-83
2021/09/26 04:58:40;;;;;;;9.37;8.37;;;17.80;99.90;;;;;;10423238;28;20275;-83
2021/09/26 05:03:44;;;;;;;9.97;7.83;;;17.80;99.90;;;;;;10425217;28;20224;-83
2021/09/26 05:08:46;;;;;;;10.27;9.27;;;17.70;99.90;;;;;;10436366;28;20317;-84
2021/09/26 05:13:48;;;;;;;7.57;6.87;;;17.80;99.90;;;;;;10424353;28;20201;-83
2021/09/26 05:18:52;;;;;;;10.40;9.50;;;17.80;99.90;;;;;;10442775;28;20584;-85
2021/09/26 05:23:54;;;;;;;10.50;9.40;;;17.80;99.90;;;;;;10446106;28;20657;-84
2021/09/26 05:28:56;;;;;;;10.67;9.27;;;17.80;99.90;;;;;;10466136;28;20213;-83
2021/09/26 05:33:59;;;;;;;11.53;10.03;;;17.80;99.90;;;;;;10432155;28;20225;-84
2021/09/26 05:39:02;;;;;;;10.60;9.57;;;17.70;99.90;;;;;;10429553;28;20265;-84
2021/09/26 05:44:04;;;;;;;9.67;8.60;;;17.70;99.90;;;;;;10430793;28;20744;-85
2021/09/26 05:49:08;;;;;;;10.70;9.73;;;17.70;99.90;;;;;;10449811;28;20240;-83
2021/09/26 05:54:10;;;;;;;10.20;9.30;;;17.70;99.90;;;;;;10400960;28;20214;-85
2021/09/26 05:59:12;;;;;;;11.37;10.30;;;17.70;99.90;;;;;;10408756;28;20225;-84
2021/09/26 06:04:16;;;;;;;10.83;9.83;;;17.70;99.90;;;;;;10391545;28;20198;-83
2021/09/26 06:09:18;;;;;;;11.07;10.07;;;17.70;99.90;;;;;;10392073;28;20308;-84
2021/09/26 06:14:20;;;;;;;10.20;9.37;;;17.70;99.90;;;;;;10394336;28;20689;-83
2021/09/26 06:19:24;;;;;;;11.70;10.50;;;17.80;99.90;;;;;;10429617;28;20224;-84
2021/09/26 06:24:27;;;;;;;10.87;9.93;;;17.80;99.90;;;;;;10444033;28;20625;-83
2021/09/26 06:29:29;;;;;;;10.30;9.50;;;17.90;99.90;;;;;;10433206;28;20279;-85
2021/09/26 06:34:32;;;;;;;10.87;9.97;;;17.90;99.90;;;;;;10448842;28;20574;-85
2021/09/26 06:39:35;;;;;;;9.97;9.17;;;18.00;99.90;;;;;;10433731;28;20272;-83
2021/09/26 06:44:37;;;;;;;10.07;9.27;;;18.00;99.90;;;;;;10451874;28;20262;-85
2021/09/26 06:49:41;;;;;;;10.17;8.67;;;18.10;99.90;;;;;;10436559;28;20657;-85
2021/09/26 06:54:43;;;;;;;9.77;8.87;;;18.20;99.90;;;;;;10469197;28;20208;-86
2021/09/26 06:59:45;;;;;;;9.90;9.00;;;18.30;99.90;;;;;;10446755;28;20744;-83
2021/09/26 07:04:49;;;;;;;10.17;9.30;;;18.40;99.90;;;;;;10442887;28;20906;-83
2021/09/26 07:09:52;;;;;;;10.20;9.13;;;18.50;99.90;;;;;;10445406;28;20635;-83
2021/09/26 07:14:56;;;;;;;10.20;9.20;;;18.50;99.90;;;;;;10443260;28;20284;-83
2021/09/26 07:20:00;;;;;;;11.00;10.00;;;18.60;99.90;;;;;;10429285;28;20313;-84
2021/09/26 07:25:02;;;;;;;9.53;8.73;;;18.70;99.90;;;;;;10441633;28;20216;-83
2021/09/26 07:30:05;;;;;;;10.83;9.83;;;18.80;99.90;;;;;;10444691;28;20224;-85
2021/09/26 07:35:10;;;;;;;10.60;9.77;;;18.90;99.90;;;;;;10443576;28;20211;-83
2021/09/26 07:40:13;;;;;;;11.13;10.23;;;19.00;99.90;;;;;;10461849;22;20239;-83
2021/09/26 07:45:15;;;;;;;10.83;9.83;;;19.20;99.90;;;;;;10460902;28;20208;-83
2021/09/26 07:50:24;;;;;;;11.90;9.90;;;19.30;99.90;;;;;;10479006;28;20239;-83
2021/09/26 07:55:26;;;;;;;9.30;8.40;;;19.40;99.90;;;;;;10439545;28;20224;-83
2021/09/26 08:00:28;;;;;;;14.03;9.90;;;19.50;99.90;;;;;;10420302;28;20240;-83
2021/09/26 08:05:32;;;;;;;10.20;9.30;;;19.60;99.90;;;;;;10436662;28;20206;-83
2021/09/26 08:10:36;;;;;;;9.90;9.10;;;19.70;99.90;;;;;;10419721;28;20280;-83
2021/09/26 08:15:38;;;;;;;11.23;8.70;;;19.80;99.90;;;;;;10419520;28;20202;-83
2021/09/26 08:20:42;;;;;;;8.87;8.17;;;20.00;99.90;;;;;;10438567;28;20316;-83
2021/09/26 08:25:44;;;;;;;8.57;7.77;;;20.20;99.90;;;;;;10477234;28;20680;-83
2021/09/26 08:30:47;;;;;;;9.97;8.90;;;20.40;99.90;;;;;;10494838;28;20235;-83
2021/09/26 08:35:50;;;;;;;8.50;7.70;;;20.50;99.90;;;;;;10476753;28;20189;-83
2021/09/26 08:40:52;;;;;;;10.20;8.00;;;20.70;99.90;;;;;;10476721;28;20224;-83
2021/09/26 08:45:56;;;;;;;13.20;8.53;;;20.80;99.90;;;;;;10459466;28;20200;-83
2021/09/26 08:51:00;;;;;;;10.90;8.70;;;20.80;99.90;;;;;;10459920;28;20540;-83
2021/09/26 08:56:02;;;;;;;8.83;7.93;;;20.80;99.90;;;;;;10493725;28;20201;-83
2021/09/26 09:01:04;;;;;;;8.70;8.00;;;21.00;99.90;;;;;;10459672;28;20219;-83
2021/09/26 09:06:08;;;;;;;9.10;8.17;;;21.10;99.90;;;;;;10459649;28;20205;-83
2021/09/26 09:11:22;;;;;;;8.33;7.53;;;21.20;99.90;;;;;;10459118;28;20212;-83
2021/09/26 09:16:31;;;;;;;9.10;8.10;;;21.30;99.90;;;;;;10459567;28;20206;-83
2021/09/26 09:21:36;;;;;;;10.10;9.20;;;21.30;99.90;;;;;;10459374;28;20251;-83
2021/09/26 09:26:39;;;;;;;9.10;7.30;;;21.20;99.90;;;;;;10475601;28;20609;-83
2021/09/26 09:31:51;;;;;;;10.07;9.17;;;21.20;99.90;;;;;;10493343;28;20209;-83
2021/09/26 09:37:14;;;;;;;10.90;10.00;;;21.30;99.90;;;;;;10492385;28;20258;-84
2021/09/26 09:42:20;;;;;;;11.30;10.20;;;21.50;99.90;;;;;;10458614;28;20236;-83
2021/09/26 09:47:22;;;;;;;10.53;9.63;;;21.70;99.90;;;;;;10475540;28;20216;-83
2021/09/26 09:52:46;;;;;;;11.53;10.63;;;21.70;99.90;;;;;;10471613;28;20660;-83
2021/09/26 09:57:48;;;;;;;11.50;10.60;;;21.60;99.90;;;;;;10483514;28;20210;-83
2021/09/26 10:02:50;;;;;;;11.50;10.47;;;21.50;99.90;;;;;;10457759;28;20324;-83
2021/09/26 10:07:54;;;;;;;13.27;11.93;;;21.40;99.90;;;;;;10461601;28;20207;-83
2021/09/26 10:13:09;;;;;;;13.70;11.67;;;21.40;99.90;;;;;;10465797;28;20220;-83
2021/09/26 10:18:11;;;;;;;13.50;12.30;;;21.30;99.90;;;;;;10465476;28;20295;-83
2021/09/26 10:23:30;;;;;;;13.93;11.93;;;21.10;99.90;;;;;;10481916;28;20251;-83
2021/09/26 10:28:34;;;;;;;14.20;12.80;;;20.90;99.90;;;;;;10464559;28;20295;-83
2021/09/26 10:33:36;;;;;;;13.50;12.20;;;20.80;99.90;;;;;;10481782;28;20208;-83
2021/09/26 10:38:40;;;;;;;14.07;12.63;;;20.70;99.90;;;;;;10464523;28;20226;-83
2021/09/26 10:43:43;;;;;;;14.60;13.30;;;20.70;99.90;;;;;;10464491;28;20350;-83
2021/09/26 10:49:07;;;;;;;13.90;12.63;;;20.80;99.90;;;;;;10480706;28;20827;-82
2021/09/26 10:54:30;;;;;;;13.33;12.23;;;20.90;99.90;;;;;;10468282;28;20630;-83
2021/09/26 10:59:37;;;;;;;13.43;12.43;;;21.00;99.90;;;;;;10480830;28;20220;-83
2021/09/26 11:04:40;;;;;;;13.73;12.63;;;21.00;99.90;;;;;;10480385;28;20619;-83
2021/09/26 11:09:52;;;;;;;11.53;10.63;;;20.90;99.90;;;;;;10480230;28;20656;-83
2021/09/26 11:15:06;;;;;;;12.60;11.53;;;20.90;99.90;;;;;;10463256;28;20212;-83
2021/09/26 11:20:10;;;;;;;11.33;10.43;;;20.80;99.90;;;;;;10462450;28;20220;-83
2021/09/26 11:25:13;;;;;;;11.70;10.77;;;20.70;99.90;;;;;;10479600;28;20561;-83
2021/09/26 11:30:26;;;;;;;12.33;11.13;;;20.60;99.90;;;;;;10479238;28;20251;-83
2021/09/26 11:35:31;;;;;;;14.40;13.20;;;20.60;99.90;;;;;;10462609;28;20223;-82
2021/09/26 11:41:04;;;;;;;12.77;11.67;;;20.50;99.90;;;;;;10462123;28;20598;-83
2021/09/26 11:46:28;;;;;;;14.00;12.90;;;20.50;99.90;;;;;;10496526;28;20204;-83
2021/09/26 11:51:31;;;;;;;12.70;11.70;;;20.40;99.90;;;;;;10475980;28;20259;-83
2021/09/26 11:56:41;;;;;;;14.40;13.20;;;20.40;99.90;;;;;;10437311;28;20201;-83
2021/09/26 12:01:44;;;;;;;13.30;12.20;;;20.30;99.90;;;;;;10420887;28;20235;-83
2021/09/26 12:06:49;;;;;;;14.13;12.93;;;20.30;99.90;;;;;;10420232;28;20727;-83
2021/09/26 12:11:53;;;;;;;13.67;12.47;;;20.30;99.90;;;;;;10420630;28;20213;-83
2021/09/26 12:16:55;;;;;;;14.30;13.10;;;20.40;99.90;;;;;;10419676;28;20204;-83
2021/09/26 12:22:03;;;;;;;12.93;11.83;;;20.50;99.90;;;;;;10442978;28;20224;-83
2021/09/26 12:27:29;;;;;;;12.90;11.70;;;20.80;99.90;;;;;;10477006;28;20216;-83
2021/09/26 12:32:35;;;;;;;11.73;10.60;;;21.00;99.90;;;;;;10475986;28;20216;-83
2021/09/26 12:37:48;;;;;;;11.70;10.70;;;21.20;99.90;;;;;;10494810;28;20192;-83
2021/09/26 12:43:07;;;;;;;11.13;10.20;;;21.30;99.90;;;;;;10476811;28;20228;-83
2021/09/26 12:48:14;;;;;;;12.20;11.30;;;21.30;99.90;;;;;;10459978;28;20231;-83
2021/09/26 12:53:20;;;;;;;11.30;10.40;;;21.40;99.90;;;;;;10459988;28;20584;-83
2021/09/26 12:58:33;;;;;;;11.23;10.43;;;21.50;99.90;;;;;;10476877;28;20692;-83
2021/09/26 13:03:47;;;;;;;11.40;10.27;;;21.50;99.90;;;;;;10476382;28;20221;-83
2021/09/26 13:08:49;;;;;;;10.57;9.70;;;21.70;99.90;;;;;;10494548;28;20188;-83
2021/09/26 13:14:05;;;;;;;10.90;9.93;;;21.80;99.90;;;;;;10460409;28;20193;-83
2021/09/26 13:19:34;;;;;;;10.30;9.50;;;21.80;99.90;;;;;;10459692;28;20602;-83
2021/09/26 13:24:39;;;;;;;11.40;10.50;;;21.90;99.90;;;;;;10432067;28;20255;-83
2021/09/26 13:29:43;;;;;;;9.90;9.20;;;22.00;99.90;;;;;;10418317;28;20712;-83
2021/09/26 13:34:46;;;;;;;10.83;9.93;;;22.10;99.90;;;;;;10418507;28;20644;-83
2021/09/26 13:46:48;;;;;;;10.03;9.20;;;22.00;99.90;;;;;;10483881;28;20196;-85
2021/09/26 13:51:51;;;;;;;9.73;8.97;;;22.00;99.90;;;;;;10490379;28;20686;-85
2021/09/26 13:56:56;;;;;;;10.67;9.87;;;22.00;99.90;;;;;;10474463;28;20291;-84
2021/09/26 14:01:59;;;;;;;10.00;9.30;;;22.10;99.90;;;;;;10470802;28;20212;-84
2021/09/26 14:07:02;;;;;;;10.23;9.20;;;22.10;99.90;;;;;;10468280;28;20207;-84
2021/09/26 14:12:05;;;;;;;9.90;9.10;;;22.20;99.90;;;;;;10504210;28;20231;-84
2021/09/26 14:17:10;;;;;;;11.30;9.87;;;22.20;99.90;;;;;;10503431;28;20258;-85
2021/09/26 14:22:14;;;;;;;9.80;9.10;;;22.20;99.90;;;;;;10486281;28;20692;-84
2021/09/26 14:27:16;;;;;;;10.80;9.87;;;22.10;99.90;;;;;;10488090;28;20195;-85
2021/09/26 14:32:19;;;;;;;8.50;7.90;;;22.00;99.90;;;;;;10469728;28;20714;-84
2021/09/26 14:37:21;;;;;;;9.17;8.50;;;21.90;99.90;;;;;;10470997;28;20642;-84
2021/09/26 14:42:24;;;;;;;7.50;7.00;;;21.80;99.90;;;;;;10506294;28;20235;-84
2021/09/26 14:47:27;;;;;;;7.40;6.90;;;21.80;99.90;;;;;;10506600;28;20221;-84
2021/09/26 14:52:29;;;;;;;7.60;6.90;;;21.70;99.90;;;;;;10489420;28;20247;-84
2021/09/26 14:57:31;;;;;;;7.10;6.67;;;21.80;99.90;;;;;;10508087;28;20203;-85
2021/09/26 15:02:41;;;;;;;8.97;8.07;;;21.80;99.90;;;;;;10505633;28;20708;-84
2021/09/26 15:07:43;;;;;;;9.43;8.50;;;21.80;99.90;;;;;;10488517;28;20200;-85
2021/09/26 15:12:46;;;;;;;11.20;10.40;;;21.80;99.90;;;;;;10489252;28;20204;-85
2021/09/26 15:17:49;;;;;;;10.67;9.77;;;21.80;99.90;;;;;;10487909;28;20224;-84
2021/09/26 15:22:52;;;;;;;10.53;9.70;;;21.80;99.90;;;;;;10473021;28;20232;-84
2021/09/26 15:27:54;;;;;;;10.73;10.00;;;21.80;99.90;;;;;;10480037;28;20320;-84
2021/09/26 15:32:57;;;;;;;9.83;9.13;;;21.70;99.90;;;;;;10487889;28;20216;-85
2021/09/26 15:38:00;;;;;;;11.20;10.20;;;21.60;99.90;;;;;;10472975;28;20196;-84
2021/09/26 15:43:03;;;;;;;10.17;9.37;;;21.50;99.90;;;;;;10488927;28;20220;-84
2021/09/26 15:48:07;;;;;;;9.50;8.80;;;21.40;99.90;;;;;;10506058;28;20192;-84
2021/09/26 15:53:13;;;;;;;8.53;7.93;;;21.30;99.90;;;;;;10483699;28;20270;-84
2021/09/26 15:58:16;;;;;;;9.70;8.97;;;21.20;99.90;;;;;;10457912;28;20232;-84
2021/09/26 16:03:20;;;;;;;9.53;8.83;;;21.10;99.90;;;;;;10482132;28;20259;-84
2021/09/26 16:08:22;;;;;;;10.47;9.57;;;21.00;99.90;;;;;;10489797;28;20197;-84
2021/09/26 16:13:27;;;;;;;10.20;9.40;;;20.90;99.90;;;;;;10503404;28;20213;-84
2021/09/26 16:18:32;;;;;;;11.03;10.23;;;20.80;99.90;;;;;;10484506;28;20287;-84
2021/09/26 16:23:35;;;;;;;10.60;9.80;;;20.80;99.90;;;;;;10483611;28;20228;-84
2021/09/26 16:28:37;;;;;;;11.90;10.90;;;20.70;99.90;;;;;;10484741;28;20668;-85
2021/09/26 16:33:43;;;;;;;11.30;10.20;;;20.70;99.90;;;;;;10503393;28;20240;-84
2021/09/26 16:38:49;;;;;;;12.57;11.67;;;20.70;99.90;;;;;;10502638;28;20276;-84
2021/09/26 16:43:52;;;;;;;12.60;11.50;;;20.60;99.90;;;;;;10485589;28;20228;-84
2021/09/26 16:48:55;;;;;;;11.93;10.93;;;20.50;99.90;;;;;;10507151;28;20193;-84
2021/09/26 16:53:59;;;;;;;11.57;10.57;;;20.50;99.90;;;;;;10482601;28;20244;-84
2021/09/26 16:59:03;;;;;;;11.70;10.80;;;20.50;99.90;;;;;;10467428;28;20204;-85
2021/09/26 17:04:07;;;;;;;12.07;11.03;;;20.50;99.90;;;;;;10485051;28;20771;-84
2021/09/26 17:09:09;;;;;;;12.00;11.20;;;20.40;99.90;;;;;;10483781;28;20623;-84
2021/09/26 17:14:12;;;;;;;11.57;10.77;;;20.40;99.90;;;;;;10488771;28;20280;-84
2021/09/26 17:19:15;;;;;;;14.40;13.20;;;20.40;99.90;;;;;;10487483;28;20706;-84
2021/09/26 17:24:18;;;;;;;14.23;13.17;;;20.30;99.90;;;;;;10468001;28;20228;-84
2021/09/26 17:29:21;;;;;;;14.23;12.93;;;20.30;99.90;;;;;;10500791;28;20220;-84
2021/09/26 17:34:26;;;;;;;14.83;13.63;;;20.20;99.90;;;;;;10485815;28;20220;-84
2021/09/26 17:39:34;;;;;;;14.60;13.50;;;20.20;99.90;;;;;;10485478;28;20769;-84
2021/09/26 17:44:36;;;;;;;14.97;13.77;;;20.20;99.90;;;;;;10484059;28;20231;-84
2021/09/26 17:49:40;;;;;;;14.60;13.50;;;20.10;99.90;;;;;;10503241;28;20270;-84
2021/09/26 17:54:42;;;;;;;14.37;13.20;;;20.10;99.90;;;;;;10466723;28;20201;-84
2021/09/26 17:59:44;;;;;;;14.90;13.70;;;20.00;99.90;;;;;;10462232;28;20707;-84
2021/09/26 18:04:47;;;;;;;15.83;14.33;;;20.00;99.90;;;;;;10460890;28;20362;-84
2021/09/26 18:09:49;;;;;;;17.40;15.70;;;19.90;99.90;;;;;;10461642;28;20212;-85
2021/09/26 18:14:52;;;;;;;16.03;14.73;;;19.90;99.90;;;;;;10464209;28;20221;-84
2021/09/26 18:19:55;;;;;;;16.47;15.07;;;19.80;99.90;;;;;;10465410;28;20232;-84
2021/09/26 18:24:57;;;;;;;16.83;15.13;;;19.80;99.90;;;;;;10485299;28;20680;-84
2021/09/26 18:29:59;;;;;;;15.03;13.73;;;19.70;99.90;;;;;;10506815;28;20216;-84
2021/09/26 18:35:04;;;;;;;15.40;14.07;;;19.70;99.90;;;;;;10490387;28;20201;-84
2021/09/26 18:40:09;;;;;;;15.10;13.70;;;19.60;99.90;;;;;;10491803;28;20239;-84
2021/09/26 18:45:16;;;;;;;14.53;13.33;;;19.50;99.90;;;;;;10495192;28;20220;-84
2021/09/26 18:50:21;;;;;;;15.30;14.00;;;19.40;99.90;;;;;;10507722;28;20626;-84
2021/09/26 18:55:24;;;;;;;16.03;14.70;;;19.30;99.90;;;;;;10505447;28;20272;-84
2021/09/26 19:00:29;;;;;;;16.80;15.40;;;19.30;99.90;;;;;;10506270;28;20247;-84
2021/09/26 19:05:33;;;;;;;16.07;14.77;;;19.20;99.90;;;;;;10476886;28;20217;-84
2021/09/26 19:10:36;;;;;;;16.20;14.90;;;19.10;99.90;;;;;;10484695;28;20243;-85
2021/09/26 19:15:38;;;;;;;15.10;13.90;;;19.10;99.90;;;;;;10486047;28;20184;-85
2021/09/26 19:20:44;;;;;;;16.43;15.13;;;19.00;99.90;;;;;;10486968;28;20719;-85
2021/09/26 19:25:46;;;;;;;17.30;15.90;;;19.00;99.90;;;;;;10483630;28;20279;-84
2021/09/26 19:30:49;;;;;;;15.80;14.50;;;18.90;99.90;;;;;;10500057;28;20255;-84
2021/09/26 19:35:53;;;;;;;16.67;14.90;;;18.90;99.90;;;;;;10502086;28;20609;-84
2021/09/26 19:40:55;;;;;;;16.60;15.03;;;18.90;99.90;;;;;;10488161;28;20311;-85
2021/09/26 19:45:57;;;;;;;14.70;13.50;;;18.90;99.90;;;;;;10484336;28;20220;-84
2021/09/26 19:51:01;;;;;;;16.13;14.73;;;18.90;99.90;;;;;;10483948;28;20235;-85
2021/09/26 19:56:04;;;;;;;16.03;14.73;;;18.90;99.90;;;;;;10466898;28;20292;-85
2021/09/26 20:01:07;;;;;;;16.57;15.17;;;18.90;99.90;;;;;;10482883;28;20250;-85
2021/09/26 20:06:11;;;;;;;17.30;15.80;;;18.90;99.90;;;;;;10465100;28;20231;-84
2021/09/26 20:11:15;;;;;;;15.03;13.90;;;18.90;99.90;;;;;;10499282;28;20232;-85
2021/09/26 20:16:18;;;;;;;17.03;15.63;;;18.90;99.90;;;;;;10482464;28;20189;-85
2021/09/26 20:21:22;;;;;;;15.67;14.40;;;18.90;99.90;;;;;;10482160;28;20220;-85
2021/09/26 20:26:24;;;;;;;16.20;15.00;;;18.90;99.90;;;;;;10481444;28;20278;-85
2021/09/26 20:31:28;;;;;;;16.67;15.30;;;18.90;99.90;;;;;;10482212;28;20227;-85
2021/09/26 20:36:32;;;;;;;16.77;15.37;;;18.80;99.90;;;;;;10467887;28;20218;-85
2021/09/26 20:41:34;;;;;;;16.80;15.37;;;18.80;99.90;;;;;;10469159;28;20330;-85
2021/09/26 20:46:39;;;;;;;16.57;15.07;;;18.80;99.90;;;;;;10469031;28;20204;-85
2021/09/26 20:51:43;;;;;;;17.67;16.27;;;18.80;99.90;;;;;;10484036;28;20226;-85
2021/09/26 20:56:45;;;;;;;17.50;15.93;;;18.80;99.90;;;;;;10467082;28;20216;-84
2021/09/26 21:01:47;;;;;;;16.77;15.37;;;18.70;99.90;;;;;;10477384;28;20287;-84
2021/09/26 21:06:51;;;;;;;17.37;15.87;;;18.70;99.90;;;;;;10478396;28;20196;-84
2021/09/26 21:11:54;;;;;;;16.20;14.90;;;18.70;99.90;;;;;;10461362;28;20418;-84
2021/09/26 21:16:56;;;;;;;17.23;15.73;;;18.70;99.90;;;;;;10462026;28;20204;-84
2021/09/26 21:22:00;;;;;;;15.97;14.57;;;18.60;99.90;;;;;;10478107;28;20583;-84
2021/09/26 21:27:02;;;;;;;16.27;14.97;;;18.60;99.90;;;;;;10476852;28;20262;-84
2021/09/26 21:32:04;;;;;;;17.17;15.57;;;18.60;99.90;;;;;;10476801;28;20216;-84
2021/09/26 21:37:08;;;;;;;17.00;15.60;;;18.60;99.90;;;;;;10459617;28;20228;-85
2021/09/26 21:42:10;;;;;;;16.37;15.07;;;18.60;99.90;;;;;;10477028;28;20594;-84
2021/09/26 21:47:13;;;;;;;16.70;15.30;;;18.60;99.90;;;;;;10461233;28;20224;-84
2021/09/26 21:52:17;;;;;;;15.80;14.47;;;18.60;99.90;;;;;;10480296;28;20223;-84
2021/09/26 21:57:19;;;;;;;16.77;15.27;;;18.50;99.90;;;;;;10463053;28;20574;-84
2021/09/26 22:02:21;;;;;;;16.17;14.80;;;18.50;99.90;;;;;;10480495;28;20676;-85
2021/09/26 22:07:24;;;;;;;17.27;15.60;;;18.50;99.90;;;;;;10472698;28;20227;-85
2021/09/26 22:12:27;;;;;;;16.47;15.03;;;18.50;99.90;;;;;;10488721;28;20223;-85
2021/09/26 22:17:29;;;;;;;16.20;14.90;;;18.50;99.90;;;;;;10472528;28;20203;-85
2021/09/26 22:22:32;;;;;;;17.43;15.83;;;18.50;99.90;;;;;;10472295;28;20294;-84
2021/09/26 22:27:35;;;;;;;16.70;15.37;;;18.50;99.90;;;;;;10474224;28;20200;-84
2021/09/26 22:32:37;;;;;;;17.27;15.77;;;18.50;99.90;;;;;;10473115;28;20242;-85
2021/09/26 22:37:41;;;;;;;16.20;14.80;;;18.50;99.90;;;;;;10478601;28;20235;-84
2021/09/26 22:42:43;;;;;;;17.37;15.90;;;18.50;99.90;;;;;;10482389;28;20703;-84
2021/09/26 22:47:46;;;;;;;17.30;15.87;;;18.50;99.90;;;;;;10464758;28;20576;-84
2021/09/26 22:52:50;;;;;;;17.27;15.80;;;18.40;99.90;;;;;;10466322;28;20244;-85
2021/09/26 22:57:52;;;;;;;16.67;15.27;;;18.40;99.90;;;;;;10465372;28;20675;-84
2021/09/26 23:02:59;;;;;;;17.50;16.00;;;18.30;99.90;;;;;;10465144;28;20217;-84
2021/09/26 23:08:03;;;;;;;18.33;16.80;;;18.30;99.90;;;;;;10482137;28;20204;-84
2021/09/26 23:13:07;;;;;;;18.57;16.83;;;18.30;99.90;;;;;;10464927;28;20303;-84
2021/09/26 23:18:09;;;;;;;16.80;15.30;;;18.30;99.90;;;;;;10482814;28;20672;-84
2021/09/26 23:23:13;;;;;;;16.97;15.47;;;18.30;99.90;;;;;;10463133;28;20237;-85
2021/09/26 23:28:16;;;;;;;16.17;14.90;;;18.30;99.90;;;;;;10480384;28;20550;-84
2021/09/26 23:33:20;;;;;;;16.63;15.30;;;18.20;99.90;;;;;;10479207;28;20217;-84
2021/09/26 23:38:24;;;;;;;16.60;15.30;;;18.20;99.90;;;;;;10464496;28;20200;-85
2021/09/26 23:43:31;;;;;;;16.43;15.03;;;18.20;99.90;;;;;;10481745;28;20233;-85
2021/09/26 23:48:33;;;;;;;16.77;15.33;;;18.10;99.90;;;;;;10467175;28;20231;-84
2021/09/26 23:53:37;;;;;;;18.63;16.93;;;18.10;99.90;;;;;;10466908;28;20319;-84
2021/09/26 23:58:39;;;;;;;18.27;16.77;;;18.10;99.90;;;;;;10465755;28;20292;-84
